sensor_id;sensor_type;location;lat;lon;timestamp;P1;durP1;ratioP1;P2;durP2;ratioP2
14554;SDS011;7364;50.870;4.722;2023-09-30T00:02:07;5.97;;;4.80;;
14554;SDS011;7364;50.870;4.722;2023-09-30T00:04:34;4.97;;;3.77;;
14554;SDS011;7364;50.870;4.722;2023-09-30T00:07:02;5.47;;;4.47;;
14554;SDS011;7364;50.870;4.722;2023-09-30T00:09:30;5.80;;;4.90;;
14554;SDS011;7364;50.870;4.722;2023-09-30T00:11:57;6.40;;;4.33;;
14554;SDS011;7364;50.870;4.722;2023-09-30T00:14:27;5.43;;;4.13;;
14554;SDS011;7364;50.870;4.722;2023-09-30T00:16:55;8.50;;;5.87;;
14554;SDS011;7364;50.870;4.722;2023-09-30T00:19:22;10.27;;;6.40;;
14554;SDS011;7364;50.870;4.722;2023-09-30T00:21:49;10.43;;;6.40;;
14554;SDS011;7364;50.870;4.722;2023-09-30T00:24:19;8.40;;;5.30;;
14554;SDS011;7364;50.870;4.722;2023-09-30T00:26:46;6.67;;;5.20;;
14554;SDS011;7364;50.870;4.722;2023-09-30T00:29:15;6.80;;;5.53;;
14554;SDS011;7364;50.870;4.722;2023-09-30T00:31:43;8.57;;;5.07;;
14554;SDS011;7364;50.870;4.722;2023-09-30T00:34:10;6.33;;;5.20;;
14554;SDS011;7364;50.870;4.722;2023-09-30T00:36:38;8.97;;;5.77;;
14554;SDS011;7364;50.870;4.722;2023-09-30T00:39:06;7.23;;;5.33;;
14554;SDS011;7364;50.870;4.722;2023-09-30T00:41:36;9.57;;;5.70;;
14554;SDS011;7364;50.870;4.722;2023-09-30T00:44:06;5.40;;;4.90;;
14554;SDS011;7364;50.870;4.722;2023-09-30T00:46:35;5.67;;;4.77;;
14554;SDS011;7364;50.870;4.722;2023-09-30T00:49:04;5.50;;;4.30;;
14554;SDS011;7364;50.870;4.722;2023-09-30T00:51:32;5.93;;;4.97;;
14554;SDS011;7364;50.870;4.722;2023-09-30T00:54:01;6.80;;;4.27;;
14554;SDS011;7364;50.870;4.722;2023-09-30T00:56:31;5.63;;;4.80;;
14554;SDS011;7364;50.870;4.722;2023-09-30T00:59:02;8.10;;;5.00;;
14554;SDS011;7364;50.870;4.722;2023-09-30T01:01:30;6.53;;;5.17;;
14554;SDS011;7364;50.870;4.722;2023-09-30T01:03:57;8.97;;;5.13;;
14554;SDS011;7364;50.870;4.722;2023-09-30T01:06:25;6.50;;;4.80;;
14554;SDS011;7364;50.870;4.722;2023-09-30T01:08:52;7.27;;;5.10;;
14554;SDS011;7364;50.870;4.722;2023-09-30T01:11:19;7.40;;;5.40;;
14554;SDS011;7364;50.870;4.722;2023-09-30T01:13:48;6.83;;;5.10;;
14554;SDS011;7364;50.870;4.722;2023-09-30T01:16:16;13.27;;;5.53;;
14554;SDS011;7364;50.870;4.722;2023-09-30T01:18:44;10.63;;;4.37;;
14554;SDS011;7364;50.870;4.722;2023-09-30T01:21:11;7.23;;;4.87;;
14554;SDS011;7364;50.870;4.722;2023-09-30T01:23:40;7.03;;;5.43;;
14554;SDS011;7364;50.870;4.722;2023-09-30T01:26:09;5.73;;;5.10;;
14554;SDS011;7364;50.870;4.722;2023-09-30T01:28:37;6.40;;;4.60;;
14554;SDS011;7364;50.870;4.722;2023-09-30T01:31:06;8.47;;;5.13;;
14554;SDS011;7364;50.870;4.722;2023-09-30T01:33:34;8.77;;;5.57;;
14554;SDS011;7364;50.870;4.722;2023-09-30T01:36:01;8.53;;;5.40;;
14554;SDS011;7364;50.870;4.722;2023-09-30T01:38:29;7.30;;;5.70;;
14554;SDS011;7364;50.870;4.722;2023-09-30T01:40:57;7.13;;;5.23;;
14554;SDS011;7364;50.870;4.722;2023-09-30T01:43:25;7.67;;;5.37;;
14554;SDS011;7364;50.870;4.722;2023-09-30T01:45:52;9.53;;;5.60;;
14554;SDS011;7364;50.870;4.722;2023-09-30T01:48:20;7.27;;;5.17;;
14554;SDS011;7364;50.870;4.722;2023-09-30T01:50:47;7.87;;;4.90;;
14554;SDS011;7364;50.870;4.722;2023-09-30T01:53:14;8.50;;;5.73;;
14554;SDS011;7364;50.870;4.722;2023-09-30T01:55:41;8.77;;;4.50;;
14554;SDS011;7364;50.870;4.722;2023-09-30T01:58:11;7.47;;;4.93;;
14554;SDS011;7364;50.870;4.722;2023-09-30T02:00:38;6.27;;;5.20;;
14554;SDS011;7364;50.870;4.722;2023-09-30T02:03:05;7.07;;;5.13;;
14554;SDS011;7364;50.870;4.722;2023-09-30T02:05:32;8.50;;;4.83;;
14554;SDS011;7364;50.870;4.722;2023-09-30T02:08:03;11.20;;;5.40;;
14554;SDS011;7364;50.870;4.722;2023-09-30T02:10:31;10.50;;;5.67;;
14554;SDS011;7364;50.870;4.722;2023-09-30T02:12:59;7.70;;;5.80;;
14554;SDS011;7364;50.870;4.722;2023-09-30T02:15:28;6.13;;;4.87;;
14554;SDS011;7364;50.870;4.722;2023-09-30T02:17:56;7.70;;;5.93;;
14554;SDS011;7364;50.870;4.722;2023-09-30T02:20:23;9.37;;;6.00;;
14554;SDS011;7364;50.870;4.722;2023-09-30T02:22:51;7.90;;;5.37;;
14554;SDS011;7364;50.870;4.722;2023-09-30T02:25:19;9.37;;;6.00;;
14554;SDS011;7364;50.870;4.722;2023-09-30T02:27:47;7.10;;;5.33;;
14554;SDS011;7364;50.870;4.722;2023-09-30T02:30:16;9.27;;;5.30;;
14554;SDS011;7364;50.870;4.722;2023-09-30T02:32:45;7.77;;;4.97;;
14554;SDS011;7364;50.870;4.722;2023-09-30T02:35:12;12.57;;;5.13;;
14554;SDS011;7364;50.870;4.722;2023-09-30T02:37:40;11.43;;;6.03;;
14554;SDS011;7364;50.870;4.722;2023-09-30T02:40:08;9.00;;;6.37;;
14554;SDS011;7364;50.870;4.722;2023-09-30T02:42:36;6.80;;;6.00;;
14554;SDS011;7364;50.870;4.722;2023-09-30T02:45:04;9.50;;;6.20;;
14554;SDS011;7364;50.870;4.722;2023-09-30T02:47:33;7.63;;;5.87;;
14554;SDS011;7364;50.870;4.722;2023-09-30T02:50:04;8.67;;;6.50;;
14554;SDS011;7364;50.870;4.722;2023-09-30T02:52:33;8.67;;;6.13;;
14554;SDS011;7364;50.870;4.722;2023-09-30T02:55:01;9.60;;;6.20;;
14554;SDS011;7364;50.870;4.722;2023-09-30T02:57:29;11.10;;;7.10;;
14554;SDS011;7364;50.870;4.722;2023-09-30T02:59:57;12.40;;;8.03;;
14554;SDS011;7364;50.870;4.722;2023-09-30T03:02:25;8.60;;;7.70;;
14554;SDS011;7364;50.870;4.722;2023-09-30T03:04:52;8.77;;;6.73;;
14554;SDS011;7364;50.870;4.722;2023-09-30T03:07:21;11.13;;;7.60;;
14554;SDS011;7364;50.870;4.722;2023-09-30T03:09:49;8.03;;;7.23;;
14554;SDS011;7364;50.870;4.722;2023-09-30T03:12:18;15.13;;;8.30;;
14554;SDS011;7364;50.870;4.722;2023-09-30T03:14:47;11.33;;;6.90;;
14554;SDS011;7364;50.870;4.722;2023-09-30T03:17:16;11.43;;;7.23;;
14554;SDS011;7364;50.870;4.722;2023-09-30T03:19:44;8.17;;;7.10;;
14554;SDS011;7364;50.870;4.722;2023-09-30T03:22:11;11.40;;;6.97;;
14554;SDS011;7364;50.870;4.722;2023-09-30T03:24:40;7.97;;;6.20;;
14554;SDS011;7364;50.870;4.722;2023-09-30T03:27:08;8.30;;;6.30;;
14554;SDS011;7364;50.870;4.722;2023-09-30T03:29:35;7.37;;;5.47;;
14554;SDS011;7364;50.870;4.722;2023-09-30T03:32:03;7.93;;;5.80;;
14554;SDS011;7364;50.870;4.722;2023-09-30T03:34:31;11.17;;;6.30;;
14554;SDS011;7364;50.870;4.722;2023-09-30T03:36:58;6.63;;;5.87;;
14554;SDS011;7364;50.870;4.722;2023-09-30T03:39:25;10.20;;;6.33;;
14554;SDS011;7364;50.870;4.722;2023-09-30T03:41:55;6.60;;;5.97;;
14554;SDS011;7364;50.870;4.722;2023-09-30T03:44:23;9.07;;;6.40;;
14554;SDS011;7364;50.870;4.722;2023-09-30T03:46:50;9.03;;;5.47;;
14554;SDS011;7364;50.870;4.722;2023-09-30T03:49:18;6.43;;;5.80;;
14554;SDS011;7364;50.870;4.722;2023-09-30T03:51:46;9.27;;;6.60;;
14554;SDS011;7364;50.870;4.722;2023-09-30T03:54:16;11.57;;;6.80;;
14554;SDS011;7364;50.870;4.722;2023-09-30T03:56:44;7.47;;;6.73;;
14554;SDS011;7364;50.870;4.722;2023-09-30T03:59:13;13.43;;;8.17;;
14554;SDS011;7364;50.870;4.722;2023-09-30T04:01:42;13.23;;;8.17;;
14554;SDS011;7364;50.870;4.722;2023-09-30T04:04:09;10.17;;;7.07;;
14554;SDS011;7364;50.870;4.722;2023-09-30T04:06:36;9.23;;;8.10;;
14554;SDS011;7364;50.870;4.722;2023-09-30T04:09:04;10.07;;;7.87;;
14554;SDS011;7364;50.870;4.722;2023-09-30T04:11:35;8.97;;;7.67;;
14554;SDS011;7364;50.870;4.722;2023-09-30T04:14:03;10.23;;;7.17;;
14554;SDS011;7364;50.870;4.722;2023-09-30T04:16:34;11.53;;;7.20;;
14554;SDS011;7364;50.870;4.722;2023-09-30T04:19:02;9.10;;;7.63;;
14554;SDS011;7364;50.870;4.722;2023-09-30T04:21:30;10.73;;;8.30;;
14554;SDS011;7364;50.870;4.722;2023-09-30T04:24:00;10.93;;;8.53;;
14554;SDS011;7364;50.870;4.722;2023-09-30T04:26:30;14.73;;;8.70;;
14554;SDS011;7364;50.870;4.722;2023-09-30T04:28:57;14.53;;;9.37;;
14554;SDS011;7364;50.870;4.722;2023-09-30T04:31:24;10.63;;;8.80;;
14554;SDS011;7364;50.870;4.722;2023-09-30T04:33:55;11.50;;;8.90;;
14554;SDS011;7364;50.870;4.722;2023-09-30T04:36:24;13.33;;;9.03;;
14554;SDS011;7364;50.870;4.722;2023-09-30T04:38:51;10.30;;;8.10;;
14554;SDS011;7364;50.870;4.722;2023-09-30T04:41:20;9.67;;;8.10;;
14554;SDS011;7364;50.870;4.722;2023-09-30T04:43:47;8.80;;;7.37;;
14554;SDS011;7364;50.870;4.722;2023-09-30T04:46:15;12.60;;;7.93;;
14554;SDS011;7364;50.870;4.722;2023-09-30T04:48:47;10.57;;;8.33;;
14554;SDS011;7364;50.870;4.722;2023-09-30T04:51:18;12.50;;;9.07;;
14554;SDS011;7364;50.870;4.722;2023-09-30T04:53:45;14.63;;;9.93;;
14554;SDS011;7364;50.870;4.722;2023-09-30T04:56:13;10.33;;;8.80;;
14554;SDS011;7364;50.870;4.722;2023-09-30T04:58:40;11.23;;;9.27;;
14554;SDS011;7364;50.870;4.722;2023-09-30T05:01:08;9.80;;;8.77;;
14554;SDS011;7364;50.870;4.722;2023-09-30T05:03:35;12.60;;;10.93;;
14554;SDS011;7364;50.870;4.722;2023-09-30T05:06:02;17.27;;;11.37;;
14554;SDS011;7364;50.870;4.722;2023-09-30T05:08:31;12.90;;;10.93;;
14554;SDS011;7364;50.870;4.722;2023-09-30T05:10:59;14.20;;;10.07;;
14554;SDS011;7364;50.870;4.722;2023-09-30T05:13:26;18.70;;;11.43;;
14554;SDS011;7364;50.870;4.722;2023-09-30T05:15:53;19.63;;;12.73;;
14554;SDS011;7364;50.870;4.722;2023-09-30T05:18:21;16.10;;;12.00;;
14554;SDS011;7364;50.870;4.722;2023-09-30T05:20:49;15.33;;;12.77;;
14554;SDS011;7364;50.870;4.722;2023-09-30T05:23:16;17.07;;;12.47;;
14554;SDS011;7364;50.870;4.722;2023-09-30T05:25:45;13.20;;;11.67;;
14554;SDS011;7364;50.870;4.722;2023-09-30T05:28:12;13.70;;;10.97;;
14554;SDS011;7364;50.870;4.722;2023-09-30T05:30:40;14.23;;;10.00;;
14554;SDS011;7364;50.870;4.722;2023-09-30T05:33:08;13.40;;;10.23;;
14554;SDS011;7364;50.870;4.722;2023-09-30T05:35:39;15.27;;;10.13;;
14554;SDS011;7364;50.870;4.722;2023-09-30T05:38:07;9.73;;;8.47;;
14554;SDS011;7364;50.870;4.722;2023-09-30T05:40:35;12.90;;;8.50;;
14554;SDS011;7364;50.870;4.722;2023-09-30T05:43:04;13.63;;;8.43;;
14554;SDS011;7364;50.870;4.722;2023-09-30T05:45:32;11.73;;;8.07;;
14554;SDS011;7364;50.870;4.722;2023-09-30T05:48:01;13.97;;;10.03;;
14554;SDS011;7364;50.870;4.722;2023-09-30T05:50:31;12.13;;;9.53;;
14554;SDS011;7364;50.870;4.722;2023-09-30T05:52:59;15.73;;;10.93;;
14554;SDS011;7364;50.870;4.722;2023-09-30T05:55:27;13.03;;;10.67;;
14554;SDS011;7364;50.870;4.722;2023-09-30T05:57:54;12.43;;;10.50;;
14554;SDS011;7364;50.870;4.722;2023-09-30T06:00:23;14.63;;;10.23;;
14554;SDS011;7364;50.870;4.722;2023-09-30T06:02:54;17.13;;;11.43;;
14554;SDS011;7364;50.870;4.722;2023-09-30T06:05:21;17.47;;;10.60;;
14554;SDS011;7364;50.870;4.722;2023-09-30T06:07:48;12.87;;;11.57;;
14554;SDS011;7364;50.870;4.722;2023-09-30T06:10:16;18.13;;;11.73;;
14554;SDS011;7364;50.870;4.722;2023-09-30T06:12:45;19.00;;;13.60;;
14554;SDS011;7364;50.870;4.722;2023-09-30T06:15:13;13.87;;;11.93;;
14554;SDS011;7364;50.870;4.722;2023-09-30T06:17:42;20.03;;;12.93;;
14554;SDS011;7364;50.870;4.722;2023-09-30T06:20:10;13.50;;;11.67;;
14554;SDS011;7364;50.870;4.722;2023-09-30T06:22:43;17.23;;;12.20;;
14554;SDS011;7364;50.870;4.722;2023-09-30T06:25:11;12.03;;;10.63;;
14554;SDS011;7364;50.870;4.722;2023-09-30T06:27:41;17.97;;;11.03;;
14554;SDS011;7364;50.870;4.722;2023-09-30T06:30:09;17.63;;;11.03;;
14554;SDS011;7364;50.870;4.722;2023-09-30T06:32:38;16.03;;;11.30;;
14554;SDS011;7364;50.870;4.722;2023-09-30T06:35:08;13.13;;;11.63;;
14554;SDS011;7364;50.870;4.722;2023-09-30T06:37:36;11.67;;;9.77;;
14554;SDS011;7364;50.870;4.722;2023-09-30T06:40:04;13.90;;;10.57;;
14554;SDS011;7364;50.870;4.722;2023-09-30T06:42:33;16.37;;;9.97;;
14554;SDS011;7364;50.870;4.722;2023-09-30T06:45:02;11.83;;;9.47;;
14554;SDS011;7364;50.870;4.722;2023-09-30T06:47:31;11.70;;;10.20;;
14554;SDS011;7364;50.870;4.722;2023-09-30T06:49:59;15.23;;;9.83;;
14554;SDS011;7364;50.870;4.722;2023-09-30T06:52:34;14.80;;;11.50;;
14554;SDS011;7364;50.870;4.722;2023-09-30T06:55:01;16.17;;;13.87;;
14554;SDS011;7364;50.870;4.722;2023-09-30T06:57:29;19.10;;;12.07;;
14554;SDS011;7364;50.870;4.722;2023-09-30T06:59:57;13.43;;;9.57;;
14554;SDS011;7364;50.870;4.722;2023-09-30T07:02:25;21.43;;;10.80;;
14554;SDS011;7364;50.870;4.722;2023-09-30T07:04:53;14.77;;;10.90;;
14554;SDS011;7364;50.870;4.722;2023-09-30T07:07:20;13.43;;;9.23;;
14554;SDS011;7364;50.870;4.722;2023-09-30T07:09:51;12.97;;;9.47;;
14554;SDS011;7364;50.870;4.722;2023-09-30T07:12:24;25.57;;;10.87;;
14554;SDS011;7364;50.870;4.722;2023-09-30T07:14:53;14.33;;;10.93;;
14554;SDS011;7364;50.870;4.722;2023-09-30T07:17:20;14.47;;;11.37;;
14554;SDS011;7364;50.870;4.722;2023-09-30T07:19:47;16.87;;;11.40;;
14554;SDS011;7364;50.870;4.722;2023-09-30T07:22:15;15.70;;;11.00;;
14554;SDS011;7364;50.870;4.722;2023-09-30T07:24:43;16.30;;;10.57;;
14554;SDS011;7364;50.870;4.722;2023-09-30T07:27:13;17.97;;;11.50;;
14554;SDS011;7364;50.870;4.722;2023-09-30T07:29:40;15.87;;;10.77;;
14554;SDS011;7364;50.870;4.722;2023-09-30T07:32:08;16.67;;;13.03;;
14554;SDS011;7364;50.870;4.722;2023-09-30T07:34:35;14.30;;;10.60;;
14554;SDS011;7364;50.870;4.722;2023-09-30T07:37:04;17.67;;;10.07;;
14554;SDS011;7364;50.870;4.722;2023-09-30T07:39:33;16.90;;;10.30;;
14554;SDS011;7364;50.870;4.722;2023-09-30T07:42:01;16.00;;;11.53;;
14554;SDS011;7364;50.870;4.722;2023-09-30T07:44:30;15.23;;;10.87;;
14554;SDS011;7364;50.870;4.722;2023-09-30T07:46:58;15.53;;;9.43;;
14554;SDS011;7364;50.870;4.722;2023-09-30T07:49:26;17.03;;;9.47;;
14554;SDS011;7364;50.870;4.722;2023-09-30T07:51:53;16.53;;;9.80;;
14554;SDS011;7364;50.870;4.722;2023-09-30T07:54:21;14.90;;;9.80;;
14554;SDS011;7364;50.870;4.722;2023-09-30T07:56:49;12.30;;;8.33;;
14554;SDS011;7364;50.870;4.722;2023-09-30T07:59:16;16.43;;;9.20;;
14554;SDS011;7364;50.870;4.722;2023-09-30T08:01:45;23.95;;;13.43;;
14554;SDS011;7364;50.870;4.722;2023-09-30T08:04:14;17.07;;;9.70;;
14554;SDS011;7364;50.870;4.722;2023-09-30T08:06:41;18.13;;;8.30;;
14554;SDS011;7364;50.870;4.722;2023-09-30T08:09:08;16.13;;;9.03;;
14554;SDS011;7364;50.870;4.722;2023-09-30T08:11:38;18.03;;;8.70;;
14554;SDS011;7364;50.870;4.722;2023-09-30T08:14:05;14.40;;;9.10;;
14554;SDS011;7364;50.870;4.722;2023-09-30T08:16:34;17.70;;;9.00;;
14554;SDS011;7364;50.870;4.722;2023-09-30T08:19:03;19.17;;;9.53;;
14554;SDS011;7364;50.870;4.722;2023-09-30T08:21:32;20.20;;;8.83;;
14554;SDS011;7364;50.870;4.722;2023-09-30T08:23:59;21.57;;;9.57;;
14554;SDS011;7364;50.870;4.722;2023-09-30T08:26:27;17.47;;;8.83;;
14554;SDS011;7364;50.870;4.722;2023-09-30T08:28:55;13.00;;;7.17;;
14554;SDS011;7364;50.870;4.722;2023-09-30T08:31:22;15.27;;;8.20;;
14554;SDS011;7364;50.870;4.722;2023-09-30T08:33:49;16.20;;;8.60;;
14554;SDS011;7364;50.870;4.722;2023-09-30T08:36:18;18.73;;;9.50;;
14554;SDS011;7364;50.870;4.722;2023-09-30T08:38:44;15.47;;;8.90;;
14554;SDS011;7364;50.870;4.722;2023-09-30T08:41:11;16.47;;;8.93;;
14554;SDS011;7364;50.870;4.722;2023-09-30T08:43:51;16.00;;;9.03;;
14554;SDS011;7364;50.870;4.722;2023-09-30T08:46:23;14.83;;;8.43;;
14554;SDS011;7364;50.870;4.722;2023-09-30T08:48:51;14.20;;;6.97;;
14554;SDS011;7364;50.870;4.722;2023-09-30T08:51:21;14.47;;;7.17;;
14554;SDS011;7364;50.870;4.722;2023-09-30T08:53:49;12.07;;;6.80;;
14554;SDS011;7364;50.870;4.722;2023-09-30T08:56:19;11.83;;;7.10;;
14554;SDS011;7364;50.870;4.722;2023-09-30T08:58:49;14.97;;;7.70;;
14554;SDS011;7364;50.870;4.722;2023-09-30T09:01:17;18.80;;;7.53;;
14554;SDS011;7364;50.870;4.722;2023-09-30T09:03:44;16.90;;;7.30;;
14554;SDS011;7364;50.870;4.722;2023-09-30T09:06:17;15.23;;;7.37;;
14554;SDS011;7364;50.870;4.722;2023-09-30T09:08:46;15.73;;;8.27;;
14554;SDS011;7364;50.870;4.722;2023-09-30T09:11:14;11.40;;;7.40;;
14554;SDS011;7364;50.870;4.722;2023-09-30T09:13:45;13.83;;;7.63;;
14554;SDS011;7364;50.870;4.722;2023-09-30T09:16:15;9.43;;;6.00;;
14554;SDS011;7364;50.870;4.722;2023-09-30T09:18:44;14.83;;;6.47;;
14554;SDS011;7364;50.870;4.722;2023-09-30T09:21:13;13.73;;;6.43;;
14554;SDS011;7364;50.870;4.722;2023-09-30T09:23:43;14.70;;;5.20;;
14554;SDS011;7364;50.870;4.722;2023-09-30T09:26:22;11.97;;;5.87;;
14554;SDS011;7364;50.870;4.722;2023-09-30T09:28:56;9.40;;;6.03;;
14554;SDS011;7364;50.870;4.722;2023-09-30T09:31:25;12.27;;;6.57;;
14554;SDS011;7364;50.870;4.722;2023-09-30T09:33:54;8.80;;;5.17;;
14554;SDS011;7364;50.870;4.722;2023-09-30T09:36:22;9.13;;;4.83;;
14554;SDS011;7364;50.870;4.722;2023-09-30T09:39:06;12.80;;;5.53;;
14554;SDS011;7364;50.870;4.722;2023-09-30T09:41:36;11.00;;;5.57;;
14554;SDS011;7364;50.870;4.722;2023-09-30T09:44:17;10.50;;;5.30;;
14554;SDS011;7364;50.870;4.722;2023-09-30T09:46:48;11.37;;;6.07;;
14554;SDS011;7364;50.870;4.722;2023-09-30T09:49:16;12.97;;;6.37;;
14554;SDS011;7364;50.870;4.722;2023-09-30T09:51:44;13.80;;;5.87;;
14554;SDS011;7364;50.870;4.722;2023-09-30T09:54:13;12.47;;;6.70;;
14554;SDS011;7364;50.870;4.722;2023-09-30T09:56:43;10.67;;;5.83;;
14554;SDS011;7364;50.870;4.722;2023-09-30T09:59:11;9.73;;;6.37;;
14554;SDS011;7364;50.870;4.722;2023-09-30T10:01:39;14.27;;;6.10;;
14554;SDS011;7364;50.870;4.722;2023-09-30T10:04:07;10.40;;;5.03;;
14554;SDS011;7364;50.870;4.722;2023-09-30T10:06:38;11.33;;;5.00;;
14554;SDS011;7364;50.870;4.722;2023-09-30T10:09:08;10.50;;;4.17;;
14554;SDS011;7364;50.870;4.722;2023-09-30T10:11:38;10.73;;;5.50;;
14554;SDS011;7364;50.870;4.722;2023-09-30T10:14:07;13.37;;;5.30;;
14554;SDS011;7364;50.870;4.722;2023-09-30T10:16:49;8.37;;;5.00;;
14554;SDS011;7364;50.870;4.722;2023-09-30T10:19:18;8.87;;;5.57;;
14554;SDS011;7364;50.870;4.722;2023-09-30T10:24:49;9.27;;;4.47;;
14554;SDS011;7364;50.870;4.722;2023-09-30T10:27:33;10.37;;;4.90;;
14554;SDS011;7364;50.870;4.722;2023-09-30T10:30:10;7.03;;;4.60;;
14554;SDS011;7364;50.870;4.722;2023-09-30T10:35:46;8.70;;;5.17;;
14554;SDS011;7364;50.870;4.722;2023-09-30T10:41:10;9.27;;;4.97;;
14554;SDS011;7364;50.870;4.722;2023-09-30T10:43:58;10.87;;;4.77;;
14554;SDS011;7364;50.870;4.722;2023-09-30T10:47:33;7.63;;;3.97;;
14554;SDS011;7364;50.870;4.722;2023-09-30T10:53:07;7.87;;;4.27;;
14554;SDS011;7364;50.870;4.722;2023-09-30T10:55:35;9.43;;;4.40;;
14554;SDS011;7364;50.870;4.722;2023-09-30T10:58:03;8.50;;;4.53;;
14554;SDS011;7364;50.870;4.722;2023-09-30T11:00:30;14.27;;;4.70;;
14554;SDS011;7364;50.870;4.722;2023-09-30T11:02:59;6.03;;;4.63;;
14554;SDS011;7364;50.870;4.722;2023-09-30T11:05:27;11.27;;;5.00;;
14554;SDS011;7364;50.870;4.722;2023-09-30T11:07:54;10.13;;;4.50;;
14554;SDS011;7364;50.870;4.722;2023-09-30T11:10:25;9.57;;;4.60;;
14554;SDS011;7364;50.870;4.722;2023-09-30T11:12:53;9.10;;;4.93;;
14554;SDS011;7364;50.870;4.722;2023-09-30T11:15:22;7.97;;;4.23;;
14554;SDS011;7364;50.870;4.722;2023-09-30T11:17:51;8.43;;;4.53;;
14554;SDS011;7364;50.870;4.722;2023-09-30T11:20:20;8.53;;;4.17;;
14554;SDS011;7364;50.870;4.722;2023-09-30T11:22:48;10.07;;;4.07;;
14554;SDS011;7364;50.870;4.722;2023-09-30T11:25:17;6.80;;;4.07;;
14554;SDS011;7364;50.870;4.722;2023-09-30T11:27:45;6.90;;;3.90;;
14554;SDS011;7364;50.870;4.722;2023-09-30T11:30:15;6.20;;;3.97;;
14554;SDS011;7364;50.870;4.722;2023-09-30T11:32:43;8.03;;;4.27;;
14554;SDS011;7364;50.870;4.722;2023-09-30T11:35:22;5.10;;;3.50;;
14554;SDS011;7364;50.870;4.722;2023-09-30T11:37:50;10.83;;;3.80;;
14554;SDS011;7364;50.870;4.722;2023-09-30T11:40:18;7.20;;;3.50;;
14554;SDS011;7364;50.870;4.722;2023-09-30T11:43:06;7.60;;;4.23;;
14554;SDS011;7364;50.870;4.722;2023-09-30T11:45:36;6.57;;;4.13;;
14554;SDS011;7364;50.870;4.722;2023-09-30T11:48:16;7.20;;;4.23;;
14554;SDS011;7364;50.870;4.722;2023-09-30T11:50:47;8.93;;;4.40;;
14554;SDS011;7364;50.870;4.722;2023-09-30T11:53:16;8.67;;;4.13;;
14554;SDS011;7364;50.870;4.722;2023-09-30T11:55:47;11.40;;;4.63;;
14554;SDS011;7364;50.870;4.722;2023-09-30T11:58:14;7.00;;;4.00;;
14554;SDS011;7364;50.870;4.722;2023-09-30T12:00:44;8.18;;;4.13;;
14554;SDS011;7364;50.870;4.722;2023-09-30T12:03:13;10.23;;;3.95;;
14554;SDS011;7364;50.870;4.722;2023-09-30T12:05:42;7.60;;;4.38;;
14554;SDS011;7364;50.870;4.722;2023-09-30T12:08:12;9.07;;;3.67;;
14554;SDS011;7364;50.870;4.722;2023-09-30T12:10:39;7.93;;;4.10;;
14554;SDS011;7364;50.870;4.722;2023-09-30T12:13:06;7.53;;;3.92;;
14554;SDS011;7364;50.870;4.722;2023-09-30T12:15:37;5.78;;;3.38;;
14554;SDS011;7364;50.870;4.722;2023-09-30T12:18:05;7.15;;;3.78;;
14554;SDS011;7364;50.870;4.722;2023-09-30T12:20:32;6.03;;;3.70;;
14554;SDS011;7364;50.870;4.722;2023-09-30T12:23:00;7.93;;;4.15;;
14554;SDS011;7364;50.870;4.722;2023-09-30T12:25:31;7.78;;;4.25;;
14554;SDS011;7364;50.870;4.722;2023-09-30T12:28:01;8.80;;;4.10;;
14554;SDS011;7364;50.870;4.722;2023-09-30T12:30:28;7.22;;;3.92;;
14554;SDS011;7364;50.870;4.722;2023-09-30T12:32:57;8.18;;;4.00;;
14554;SDS011;7364;50.870;4.722;2023-09-30T12:35:24;10.75;;;4.60;;
14554;SDS011;7364;50.870;4.722;2023-09-30T12:37:51;7.70;;;4.10;;
14554;SDS011;7364;50.870;4.722;2023-09-30T12:40:19;7.10;;;3.87;;
14554;SDS011;7364;50.870;4.722;2023-09-30T12:42:49;7.60;;;4.00;;
14554;SDS011;7364;50.870;4.722;2023-09-30T12:45:16;7.50;;;3.70;;
14554;SDS011;7364;50.870;4.722;2023-09-30T12:47:44;8.97;;;4.50;;
14554;SDS011;7364;50.870;4.722;2023-09-30T12:50:12;6.37;;;3.60;;
14554;SDS011;7364;50.870;4.722;2023-09-30T12:52:39;7.40;;;3.97;;
14554;SDS011;7364;50.870;4.722;2023-09-30T12:55:07;7.43;;;4.00;;
14554;SDS011;7364;50.870;4.722;2023-09-30T12:57:35;8.07;;;3.65;;
14554;SDS011;7364;50.870;4.722;2023-09-30T13:00:08;6.20;;;3.58;;
14554;SDS011;7364;50.870;4.722;2023-09-30T13:02:36;5.95;;;3.50;;
14554;SDS011;7364;50.870;4.722;2023-09-30T13:05:04;5.72;;;3.60;;
14554;SDS011;7364;50.870;4.722;2023-09-30T13:07:32;7.45;;;3.85;;
14554;SDS011;7364;50.870;4.722;2023-09-30T13:09:59;6.07;;;3.35;;
14554;SDS011;7364;50.870;4.722;2023-09-30T13:12:27;7.32;;;3.50;;
14554;SDS011;7364;50.870;4.722;2023-09-30T13:14:54;5.03;;;3.15;;
14554;SDS011;7364;50.870;4.722;2023-09-30T13:17:23;5.65;;;3.22;;
14554;SDS011;7364;50.870;4.722;2023-09-30T13:19:50;6.40;;;3.75;;
14554;SDS011;7364;50.870;4.722;2023-09-30T13:22:18;5.40;;;3.33;;
14554;SDS011;7364;50.870;4.722;2023-09-30T13:24:46;7.15;;;3.80;;
14554;SDS011;7364;50.870;4.722;2023-09-30T13:27:13;6.63;;;3.45;;
14554;SDS011;7364;50.870;4.722;2023-09-30T13:29:42;10.38;;;3.75;;
14554;SDS011;7364;50.870;4.722;2023-09-30T13:32:09;6.43;;;3.25;;
14554;SDS011;7364;50.870;4.722;2023-09-30T13:34:41;7.13;;;3.88;;
14554;SDS011;7364;50.870;4.722;2023-09-30T13:37:08;6.25;;;3.65;;
14554;SDS011;7364;50.870;4.722;2023-09-30T13:39:37;5.40;;;3.75;;
14554;SDS011;7364;50.870;4.722;2023-09-30T13:42:04;7.10;;;4.13;;
14554;SDS011;7364;50.870;4.722;2023-09-30T13:44:32;7.50;;;3.47;;
14554;SDS011;7364;50.870;4.722;2023-09-30T13:46:59;8.13;;;3.85;;
14554;SDS011;7364;50.870;4.722;2023-09-30T13:49:26;7.30;;;3.72;;
14554;SDS011;7364;50.870;4.722;2023-09-30T13:51:55;7.88;;;3.53;;
14554;SDS011;7364;50.870;4.722;2023-09-30T13:54:23;7.05;;;2.83;;
14554;SDS011;7364;50.870;4.722;2023-09-30T13:56:50;8.25;;;4.13;;
14554;SDS011;7364;50.870;4.722;2023-09-30T13:59:17;7.30;;;3.67;;
14554;SDS011;7364;50.870;4.722;2023-09-30T14:01:44;11.48;;;3.75;;
14554;SDS011;7364;50.870;4.722;2023-09-30T14:04:12;6.72;;;3.40;;
14554;SDS011;7364;50.870;4.722;2023-09-30T14:06:39;6.68;;;3.65;;
14554;SDS011;7364;50.870;4.722;2023-09-30T14:09:07;9.25;;;3.67;;
14554;SDS011;7364;50.870;4.722;2023-09-30T14:11:40;8.02;;;3.50;;
14554;SDS011;7364;50.870;4.722;2023-09-30T14:14:07;5.13;;;3.38;;
14554;SDS011;7364;50.870;4.722;2023-09-30T14:16:34;7.65;;;3.33;;
14554;SDS011;7364;50.870;4.722;2023-09-30T14:19:02;4.65;;;3.20;;
14554;SDS011;7364;50.870;4.722;2023-09-30T14:21:29;5.90;;;3.45;;
14554;SDS011;7364;50.870;4.722;2023-09-30T14:23:58;7.35;;;4.00;;
14554;SDS011;7364;50.870;4.722;2023-09-30T14:26:28;7.65;;;3.92;;
14554;SDS011;7364;50.870;4.722;2023-09-30T14:28:55;7.40;;;3.50;;
14554;SDS011;7364;50.870;4.722;2023-09-30T14:31:22;6.13;;;3.78;;
14554;SDS011;7364;50.870;4.722;2023-09-30T14:33:50;6.57;;;3.92;;
14554;SDS011;7364;50.870;4.722;2023-09-30T14:36:18;6.22;;;3.40;;
14554;SDS011;7364;50.870;4.722;2023-09-30T14:38:45;8.23;;;3.58;;
14554;SDS011;7364;50.870;4.722;2023-09-30T14:41:13;7.80;;;4.25;;
14554;SDS011;7364;50.870;4.722;2023-09-30T14:43:43;5.90;;;3.75;;
14554;SDS011;7364;50.870;4.722;2023-09-30T14:46:12;5.88;;;3.80;;
14554;SDS011;7364;50.870;4.722;2023-09-30T14:48:39;7.03;;;3.55;;
14554;SDS011;7364;50.870;4.722;2023-09-30T14:51:07;7.40;;;3.60;;
14554;SDS011;7364;50.870;4.722;2023-09-30T14:53:34;5.83;;;3.80;;
14554;SDS011;7364;50.870;4.722;2023-09-30T14:56:02;9.87;;;3.33;;
14554;SDS011;7364;50.870;4.722;2023-09-30T14:58:31;7.07;;;3.50;;
14554;SDS011;7364;50.870;4.722;2023-09-30T15:00:59;5.90;;;3.77;;
14554;SDS011;7364;50.870;4.722;2023-09-30T15:03:28;6.87;;;2.87;;
14554;SDS011;7364;50.870;4.722;2023-09-30T15:05:59;5.80;;;3.70;;
14554;SDS011;7364;50.870;4.722;2023-09-30T15:08:34;7.43;;;3.40;;
14554;SDS011;7364;50.870;4.722;2023-09-30T15:11:02;5.03;;;3.20;;
14554;SDS011;7364;50.870;4.722;2023-09-30T15:13:29;7.10;;;3.33;;
14554;SDS011;7364;50.870;4.722;2023-09-30T15:15:57;8.60;;;4.00;;